Time;durP1;ratioP1;P1;durP2;ratioP2;P2;SDS_P1;SDS_P2;PMS_P1;PMS_P2;Temp;Humidity;BMP_temperature;BMP_pressure;BME280_temperature;BME280_humidity;BME280_pressure;Samples;Min_cycle;Max_cycle;Signal;HPM_P1;HPM_P2
2021/07/26 00:00:28;;;;;;;77.87;9.27;;;;;;;;;;4869256;28;20209;-81
2021/07/26 00:03:19;;;;;;;14.87;1.90;;;17.70;38.30;;;;;;4871509;28;20185;-82
2021/07/26 00:06:03;;;;;;;8.37;1.13;;;17.60;38.10;;;;;;4875293;28;20186;-84
2021/07/26 00:08:45;;;;;;;28.03;3.43;;;;;;;;;;4856709;28;20611;-81
2021/07/26 00:11:27;;;;;;;24.43;3.00;;;17.60;38.30;;;;;;4862754;28;20651;-83
2021/07/26 00:14:09;;;;;;;8.73;1.10;;;;;;;;;;4873850;28;20205;-80
2021/07/26 00:16:50;;;;;;;11.63;1.43;;;;;;;;;;4852698;28;20362;-82
2021/07/26 00:19:38;;;;;;;8.80;1.17;;;17.40;38.40;;;;;;4855208;28;20177;-84
2021/07/26 00:22:19;;;;;;;23.73;2.90;;;;;;;;;;4875538;28;20224;-82
2021/07/26 00:25:00;;;;;;;12.10;1.63;;;;;;;;;;4878059;28;20189;-81
2021/07/26 00:27:43;;;;;;;24.77;3.10;;;17.30;38.40;;;;;;4856478;28;20524;-78
2021/07/26 00:30:24;;;;;;;13.80;1.77;;;;;;;;;;4877659;28;20264;-80
2021/07/26 00:34:06;;;;;;;21.20;2.67;;;17.40;38.50;;;;;;4877794;28;20205;-80
2021/07/26 00:36:49;;;;;;;22.50;2.67;;;16.40;38.30;;;;;;4841586;28;20193;-81
2021/07/26 00:39:31;;;;;;;8.60;1.20;;;17.50;38.70;;;;;;4875795;28;20189;-79
2021/07/26 00:42:12;;;;;;;14.27;1.73;;;;;;;;;;4862445;28;20537;-80
2021/07/26 00:44:55;;;;;;;14.67;1.80;;;17.50;38.70;;;;;;4876676;28;20185;-83
2021/07/26 00:47:36;;;;;;;22.47;2.70;;;;;;;;;;4869713;28;20173;-80
2021/07/26 00:50:17;;;;;;;16.83;2.03;;;;;;;;;;4858018;28;20257;-82
2021/07/26 00:52:59;;;;;;;9.83;1.27;;;;;;;;;;4862362;28;20256;-82
2021/07/26 00:55:41;;;;;;;18.57;2.30;;;;;;;;;;4876597;28;20177;-79
2021/07/26 00:58:23;;;;;;;21.73;2.70;;;;;;;;;;4877433;28;20189;-78
2021/07/26 01:01:05;;;;;;;9.27;1.20;;;17.60;38.90;;;;;;4875844;28;20213;-80
2021/07/26 01:03:46;;;;;;;23.43;2.80;;;;;;;;;;4857345;28;20173;-78
2021/07/26 01:06:27;;;;;;;14.23;1.77;;;;;;;;;;4876662;28;20269;-79
2021/07/26 01:09:09;;;;;;;8.97;1.13;;;;;;;;;;4876534;28;20185;-80
2021/07/26 01:11:50;;;;;;;7.87;1.03;;;;;;;;;;4872195;28;20273;-80
2021/07/26 01:14:32;;;;;;;19.13;2.30;;;;;;;;;;4860672;28;20213;-80
2021/07/26 01:17:31;;;;;;;16.00;1.93;;;17.60;39.00;;;;;;4876382;28;20193;-79
2021/07/26 01:20:14;;;;;;;10.87;1.37;;;17.70;39.00;;;;;;4876189;28;20182;-80
2021/07/26 01:22:56;;;;;;;11.70;1.47;;;;;;;;;;4876241;28;20213;-79
2021/07/26 01:25:37;;;;;;;19.30;2.30;;;;;;;;;;4869967;28;20643;-79
2021/07/26 01:28:20;;;;;;;11.63;1.53;;;17.70;39.10;;;;;;4876019;28;20579;-79
2021/07/26 01:31:02;;;;;;;14.53;1.83;;;;;;;;;;4877225;28;20185;-84
2021/07/26 01:33:45;;;;;;;17.70;2.10;;;17.60;39.10;;;;;;4877105;28;20292;-84
2021/07/26 01:36:28;;;;;;;16.97;2.10;;;17.60;39.10;;;;;;4862018;28;20181;-77
2021/07/26 01:39:09;;;;;;;9.33;1.20;;;;;;;;;;4875296;28;20185;-77
2021/07/26 01:41:54;;;;;;;6.80;0.90;;;;;;;;;;4871715;28;20189;-76
2021/07/26 01:44:35;;;;;;;27.83;3.27;;;;;;;;;;4869108;28;20177;-80
2021/07/26 01:47:17;;;;;;;12.97;1.63;;;17.50;39.10;;;;;;4876465;28;20181;-79
2021/07/26 01:50:02;;;;;;;14.83;1.83;;;17.50;39.10;;;;;;4859866;28;20531;-78
2021/07/26 01:52:45;;;;;;;21.23;2.43;;;17.50;39.10;;;;;;4870088;28;20568;-77
2021/07/26 01:55:27;;;;;;;17.57;2.13;;;;;;;;;;4875920;28;20217;-79
2021/07/26 01:58:09;;;;;;;12.90;1.63;;;;;;;;;;4876805;28;20730;-81
2021/07/26 02:00:50;;;;;;;10.07;1.33;;;;;;;;;;4868885;28;20694;-81
2021/07/26 02:03:31;;;;;;;13.67;1.73;;;;;;;;;;4869137;28;20720;-82
2021/07/26 02:06:12;;;;;;;11.03;1.47;;;;;;;;;;4876386;28;20181;-82
2021/07/26 02:08:55;;;;;;;11.60;1.53;;;17.30;39.10;;;;;;4855551;28;20225;-82
2021/07/26 02:11:36;;;;;;;15.47;1.90;;;;;;;;;;4853232;28;20524;-79
2021/07/26 02:14:17;;;;;;;14.83;1.83;;;;;;;;;;4876274;28;20209;-79
2021/07/26 02:16:58;;;;;;;12.10;1.50;;;;;;;;;;4876633;28;20264;-81
2021/07/26 02:19:40;;;;;;;20.63;2.47;;;;;;;;;;4854327;28;20217;-80
2021/07/26 02:22:21;;;;;;;15.27;2.00;;;;;;;;;;4875064;28;20706;-81
2021/07/26 02:25:03;;;;;;;11.27;1.50;;;17.30;39.10;;;;;;4876023;28;20186;-82
2021/07/26 02:27:45;;;;;;;17.00;2.07;;;17.20;39.10;;;;;;4870637;28;20178;-80
2021/07/26 02:30:26;;;;;;;14.63;1.87;;;;;;;;;;4875200;28;20182;-79
2021/07/26 02:33:07;;;;;;;10.47;1.40;;;;;;;;;;4873644;28;20193;-82
2021/07/26 02:35:49;;;;;;;21.37;2.60;;;17.10;39.10;;;;;;4875355;28;20233;-82
2021/07/26 02:38:30;;;;;;;25.77;3.07;;;;;;;;;;4867670;28;20630;-81
2021/07/26 02:41:14;;;;;;;11.37;1.50;;;17.00;39.10;;;;;;4875523;28;20181;-83
2021/07/26 02:43:55;;;;;;;8.53;1.13;;;;;;;;;;4860899;28;20189;-82
2021/07/26 02:46:36;;;;;;;19.70;2.33;;;;;;;;;;4868588;28;20174;-80
2021/07/26 02:49:17;;;;;;;16.73;2.07;;;;;;;;;;4874828;28;20185;-82
2021/07/26 02:51:59;;;;;;;12.53;1.60;;;;;;;;;;4875539;28;20181;-82
2021/07/26 02:54:40;;;;;;;32.60;3.80;;;;;;;;;;4873937;28;20690;-82
2021/07/26 02:57:22;;;;;;;14.77;1.87;;;16.80;39.00;;;;;;4857522;28;20182;-81
2021/07/26 03:00:04;;;;;;;10.27;1.33;;;16.80;39.00;;;;;;4859711;28;20208;-81
2021/07/26 03:02:45;;;;;;;20.83;2.53;;;;;;;;;;4853234;28;20189;-82
2021/07/26 03:05:27;;;;;;;14.97;1.87;;;;;;;;;;4874375;28;20294;-83
2021/07/26 03:08:08;;;;;;;9.90;1.23;;;;;;;;;;4874393;28;20185;-82
2021/07/26 03:10:50;;;;;;;6.63;0.90;;;;;;;;;;4875299;28;20598;-82
2021/07/26 03:13:32;;;;;;;6.93;0.97;;;16.50;38.90;;;;;;4867470;28;20591;-83
2021/07/26 03:16:15;;;;;;;13.57;1.77;;;16.50;38.90;;;;;;4873775;28;20204;-83
2021/07/26 03:18:56;;;;;;;11.67;1.50;;;;;;;;;;4859624;28;20181;-81
2021/07/26 03:21:37;;;;;;;16.87;2.07;;;;;;;;;;4868695;28;20631;-82
2021/07/26 03:24:19;;;;;;;12.53;1.60;;;;;;;;;;4859614;28;20182;-78
2021/07/26 03:27:00;;;;;;;14.43;1.90;;;;;;;;;;4874660;28;20184;-79
2021/07/26 03:29:42;;;;;;;14.03;1.70;;;16.40;38.90;;;;;;4868259;28;20174;-82
2021/07/26 03:32:23;;;;;;;18.10;2.23;;;;;;;;;;4875098;28;20221;-77
2021/07/26 03:35:05;;;;;;;11.40;1.47;;;16.40;39.00;;;;;;4873886;28;20224;-82
2021/07/26 03:37:47;;;;;;;27.00;3.23;;;;;;;;;;4854019;28;20181;-80
2021/07/26 03:40:28;;;;;;;15.63;1.97;;;;;;;;;;4873373;28;20186;-82
2021/07/26 03:43:10;;;;;;;15.00;1.90;;;;;;;;;;4874616;28;20197;-78
2021/07/26 03:45:52;;;;;;;7.07;0.97;;;16.50;39.10;;;;;;4868620;28;20178;-81
2021/07/26 03:48:34;;;;;;;48.73;5.77;;;;;;;;;;4866202;28;20185;-81
2021/07/26 03:51:15;;;;;;;13.43;1.70;;;;;;;;;;4855815;28;20194;-81
2021/07/26 03:53:56;;;;;;;9.27;1.20;;;;;;;;;;4874528;28;20304;-83
2021/07/26 03:56:37;;;;;;;16.67;2.03;;;;;;;;;;4874657;28;20189;-81
2021/07/26 03:59:18;;;;;;;22.93;2.87;;;;;;;;;;4873220;28;20189;-78
2021/07/26 04:02:01;;;;;;;11.90;1.53;;;16.50;39.20;;;;;;4872191;28;20225;-80
2021/07/26 04:04:43;;;;;;;36.17;4.33;;;;;;;;;;4868175;28;20174;-77
2021/07/26 04:07:26;;;;;;;15.10;1.93;;;;;;;;;;4856894;28;20191;-78
2021/07/26 04:10:09;;;;;;;17.40;2.20;;;16.40;39.20;;;;;;4871996;28;20189;-77
2021/07/26 04:12:53;;;;;;;10.27;1.40;;;;;;;;;;4869968;28;20186;-78
2021/07/26 04:15:34;;;;;;;20.37;2.43;;;;;;;;;;4869248;28;20209;-79
2021/07/26 04:18:16;;;;;;;12.37;1.53;;;16.50;39.30;;;;;;4877867;28;20755;-78
2021/07/26 04:20:57;;;;;;;19.07;2.40;;;;;;;;;;4877489;28;20174;-79
2021/07/26 04:23:39;;;;;;;14.73;1.80;;;;;;;;;;4877040;28;20182;-79
2021/07/26 04:26:20;;;;;;;12.33;1.63;;;;;;;;;;4877245;28;20181;-77
2021/07/26 04:29:01;;;;;;;9.13;1.23;;;;;;;;;;4877381;28;20173;-78
2021/07/26 04:31:43;;;;;;;27.17;3.27;;;;;;;;;;4872144;28;20543;-78
2021/07/26 04:34:28;;;;;;;11.87;1.53;;;16.60;39.40;;;;;;4877944;28;20177;-79
2021/07/26 04:37:09;;;;;;;10.73;1.47;;;;;;;;;;4877412;28;20620;-78
2021/07/26 04:39:50;;;;;;;8.33;1.13;;;;;;;;;;4872459;28;20177;-79
2021/07/26 04:42:32;;;;;;;21.10;2.70;;;;;;;;;;4869723;28;20265;-78
2021/07/26 04:45:13;;;;;;;13.03;1.67;;;16.80;39.60;;;;;;4877393;28;20181;-78
2021/07/26 04:47:55;;;;;;;11.53;1.50;;;;;;;;;;4877346;28;20807;-78
2021/07/26 04:50:37;;;;;;;19.63;2.40;;;16.90;39.60;;;;;;4870045;28;20181;-79
2021/07/26 04:53:18;;;;;;;23.03;2.83;;;;;;;;;;4875589;28;20213;-79
2021/07/26 04:55:59;;;;;;;14.30;1.83;;;;;;;;;;4856675;28;20548;-78
2021/07/26 04:58:40;;;;;;;40.20;4.87;;;;;;;;;;4870816;28;20189;-78
2021/07/26 05:01:22;;;;;;;13.23;1.73;;;;;;;;;;4875312;28;20213;-79
2021/07/26 05:04:03;;;;;;;20.37;2.57;;;;;;;;;;4876863;28;20177;-78
2021/07/26 05:06:46;;;;;;;23.70;2.93;;;17.40;39.80;;;;;;4870940;28;20225;-78
2021/07/26 05:09:28;;;;;;;14.10;1.83;;;;;;;;;;4876206;28;20181;-81
2021/07/26 05:12:12;;;;;;;10.17;1.30;;;15.90;39.40;;;;;;4876965;28;20189;-81
2021/07/26 05:14:54;;;;;;;19.70;2.50;;;17.70;40.10;;;;;;4871651;28;20212;-79
2021/07/26 05:17:35;;;;;;;23.53;2.90;;;;;;;;;;4869736;28;20671;-78
2021/07/26 05:20:16;;;;;;;12.43;1.50;;;;;;;;;;4860753;28;20272;-79
2021/07/26 05:22:58;;;;;;;11.53;1.50;;;18.10;40.30;;;;;;4861076;28;20182;-79
2021/07/26 05:25:44;;;;;;;28.30;3.47;;;18.20;40.30;;;;;;4871458;28;20524;-79
2021/07/26 05:28:25;;;;;;;14.43;1.83;;;;;;;;;;4876864;28;20221;-79
2021/07/26 05:31:06;;;;;;;11.83;1.43;;;;;;;;;;4877535;28;20169;-79
2021/07/26 05:33:48;;;;;;;16.10;2.03;;;;;;;;;;4877241;28;20181;-79
2021/07/26 05:36:29;;;;;;;16.13;2.07;;;;;;;;;;4875652;28;20213;-79
2021/07/26 05:39:12;;;;;;;9.70;1.27;;;18.20;40.10;;;;;;4876315;28;20265;-80
2021/07/26 05:41:53;;;;;;;9.83;1.27;;;;;;;;;;4876304;28;20265;-79
2021/07/26 05:44:38;;;;;;;24.60;3.03;;;18.10;40.00;;;;;;4876265;28;20193;-81
2021/07/26 05:47:20;;;;;;;22.80;2.83;;;;;;;;;;4876517;28;20181;-79
2021/07/26 05:50:03;;;;;;;11.43;1.50;;;;;;;;;;4876142;28;20682;-80
2021/07/26 05:52:44;;;;;;;24.60;2.93;;;;;;;;;;4876861;28;20181;-79
2021/07/26 05:55:26;;;;;;;17.10;2.13;;;18.40;40.30;;;;;;4871586;28;20236;-79
2021/07/26 05:58:08;;;;;;;26.93;3.33;;;;;;;;;;4865976;28;20189;-80
2021/07/26 06:01:08;;;;;;;10.27;1.40;;;;;;;;;;4869236;28;20226;-79
2021/07/26 06:03:50;;;;;;;9.40;1.27;;;;;;;;;;4875775;28;20599;-79
2021/07/26 06:06:31;;;;;;;9.53;1.30;;;;;;;;;;4868434;28;20169;-78
2021/07/26 06:09:13;;;;;;;23.97;3.00;;;19.20;40.70;;;;;;4874379;28;20585;-79
2021/07/26 06:11:56;;;;;;;9.47;1.27;;;19.20;40.70;;;;;;4875826;28;20194;-79
2021/07/26 06:14:37;;;;;;;32.60;3.87;;;;;;;;;;4874851;28;20269;-79
2021/07/26 06:17:18;;;;;;;14.43;1.80;;;;;;;;;;4872216;28;20612;-79
2021/07/26 06:20:00;;;;;;;19.13;2.40;;;;;;;;;;4873536;28;20186;-79
2021/07/26 06:22:41;;;;;;;20.53;2.50;;;;;;;;;;4869983;28;20174;-81
2021/07/26 06:25:22;;;;;;;16.13;2.03;;;;;;;;;;4860629;28;20593;-82
2021/07/26 06:28:07;;;;;;;12.67;1.70;;;19.00;40.40;;;;;;4855902;28;20178;-79
2021/07/26 06:30:48;;;;;;;26.23;3.20;;;;;;;;;;4869679;28;20181;-78
2021/07/26 06:33:30;;;;;;;10.03;1.30;;;;;;;;;;4874980;28;20193;-78
2021/07/26 06:36:11;;;;;;;9.90;1.33;;;;;;;;;;4875046;28;20217;-78
2021/07/26 06:38:51;;;;;;;8.93;1.20;;;;;;;;;;4874748;28;20181;-80
2021/07/26 06:41:33;;;;;;;26.73;3.27;;;;;;;;;;4858750;28;20633;-83
2021/07/26 06:44:15;;;;;;;11.53;1.50;;;19.50;40.50;;;;;;4859838;28;20193;-80
2021/07/26 06:46:56;;;;;;;4.90;0.60;;;;;;;;;;4868950;28;20182;-86
2021/07/26 06:49:37;;;;;;;36.33;4.30;;;;;;;;;;4856006;28;20186;-85
2021/07/26 06:52:21;;;;;;;20.33;2.53;;;19.60;40.40;;;;;;4875619;28;20173;-84
2021/07/26 06:55:03;;;;;;;11.10;1.43;;;;;;;;;;4860211;28;20201;-85
2021/07/26 06:57:44;;;;;;;19.40;2.47;;;;;;;;;;4868730;28;20616;-87
2021/07/26 07:00:27;;;;;;;48.87;5.77;;;19.30;40.00;;;;;;4874499;28;20205;-81
2021/07/26 07:03:09;;;;;;;15.83;2.07;;;;;;;;;;4876045;28;20193;-88
2021/07/26 07:05:50;;;;;;;2.07;0.40;;;;;;;;;;4863142;28;20264;-87
2021/07/26 07:08:32;;;;;;;35.23;4.27;;;;;;;;;;4876304;28;20185;-81
2021/07/26 07:11:15;;;;;;;8.97;1.13;;;19.20;39.70;;;;;;4876668;28;20183;-85
2021/07/26 07:13:57;;;;;;;7.93;1.03;;;;;;;;;;4868113;28;20186;-93
2021/07/26 07:16:39;;;;;;;118.10;13.37;;;19.40;39.80;;;;;;4856653;28;20213;-92
2021/07/26 07:19:21;;;;;;;36.73;4.50;;;;;;;;;;4874783;28;20185;-85
2021/07/26 07:22:02;;;;;;;12.63;1.67;;;;;;;;;;4875895;28;20185;-81
2021/07/26 07:24:43;;;;;;;36.70;4.43;;;;;;;;;;4868679;28;20208;-83
2021/07/26 07:27:24;;;;;;;11.40;1.43;;;;;;;;;;4876018;28;20635;-82
2021/07/26 07:30:06;;;;;;;8.17;1.13;;;19.60;39.40;;;;;;4874837;28;20587;-80
2021/07/26 07:32:48;;;;;;;19.20;2.37;;;19.60;39.10;;;;;;4875728;28;20336;-85
2021/07/26 07:35:30;;;;;;;17.83;2.30;;;;;;;;;;4875255;28;20327;-77
2021/07/26 07:38:11;;;;;;;12.37;1.67;;;;;;;;;;4874053;28;20228;-80
2021/07/26 07:40:52;;;;;;;7.40;0.97;;;;;;;;;;4875284;28;20680;-81
2021/07/26 07:43:33;;;;;;;16.37;2.03;;;;;;;;;;4868198;28;20185;-83
2021/07/26 07:46:16;;;;;;;11.00;1.40;;;;;;;;;;4876389;28;20182;-86
2021/07/26 07:48:58;;;;;;;7.90;1.00;;;20.20;37.20;;;;;;4860949;28;20197;-83
2021/07/26 07:51:39;;;;;;;33.57;4.00;;;;;;;;;;4857787;28;20279;-83
2021/07/26 07:54:21;;;;;;;12.90;1.67;;;;;;;;;;4858479;28;20232;-81
2021/07/26 07:57:03;;;;;;;14.13;1.70;;;;;;;;;;4849999;28;20201;-78
2021/07/26 07:59:44;;;;;;;22.27;2.67;;;;;;;;;;4869253;28;20207;-77
2021/07/26 08:02:25;;;;;;;16.97;2.17;;;;;;;;;;4875531;28;20194;-79
2021/07/26 08:05:08;;;;;;;15.43;1.93;;;20.00;38.40;;;;;;4878107;28;20197;-80
2021/07/26 08:07:50;;;;;;;12.73;1.60;;;;;;;;;;4870654;28;20190;-79
2021/07/26 08:10:31;;;;;;;17.50;2.20;;;;;;;;;;4876635;28;20193;-78
2021/07/26 08:13:12;;;;;;;9.00;1.20;;;;;;;;;;4876389;28;20186;-77
2021/07/26 08:15:55;;;;;;;11.57;1.53;;;19.90;37.60;;;;;;4878382;28;20186;-77
2021/07/26 08:18:37;;;;;;;51.93;6.10;;;;;;;;;;4877607;28;20192;-76
2021/07/26 08:21:19;;;;;;;11.67;1.53;;;20.30;36.20;;;;;;4877213;28;20179;-87
2021/07/26 08:24:00;;;;;;;16.43;2.00;;;;;;;;;;4878821;28;20179;-78
2021/07/26 08:26:41;;;;;;;29.00;3.40;;;;;;;;;;4871825;28;20655;-77
2021/07/26 08:29:22;;;;;;;13.07;1.70;;;;;;;;;;4877636;28;20192;-77
2021/07/26 08:32:03;;;;;;;16.90;2.07;;;;;;;;;;4877862;28;20275;-75
2021/07/26 08:34:45;;;;;;;31.27;3.67;;;;;;;;;;4871900;28;20179;-75
2021/07/26 08:37:32;;;;;;;12.63;1.63;;;21.70;54.30;;;;;;4878428;28;20227;-75
2021/07/26 08:40:14;;;;;;;15.13;1.90;;;21.50;58.70;;;;;;4877009;28;20184;-80
2021/07/26 08:43:02;;;;;;;10.87;1.40;;;21.60;65.00;;;;;;4877531;28;20185;-79
2021/07/26 08:45:44;;;;;;;22.07;2.63;;;;;;;;;;4871673;28;20185;-75
2021/07/26 08:48:27;;;;;;;17.70;2.27;;;21.70;52.80;;;;;;4877329;28;20661;-84
2021/07/26 08:51:11;;;;;;;16.57;2.07;;;21.80;38.10;;;;;;4878214;28;20195;-82
2021/07/26 08:53:54;;;;;;;12.23;1.67;;;21.60;35.10;;;;;;4868455;28;20288;-81
2021/07/26 08:56:36;;;;;;;25.80;3.03;;;21.30;99.90;;;;;;4877409;28;20192;-75
2021/07/26 08:59:17;;;;;;;10.70;1.37;;;;;;;;;;4863661;28;20220;-74
2021/07/26 09:01:59;;;;;;;14.93;1.83;;;;;;;;;;4877182;28;20193;-73
2021/07/26 09:04:41;;;;;;;24.73;2.93;;;21.00;85.20;;;;;;4881830;28;20338;-76
2021/07/26 09:07:26;;;;;;;14.23;1.80;;;21.20;70.30;;;;;;4870411;28;20646;-92
2021/07/26 09:10:18;;;;;;;21.37;2.60;;;21.50;51.10;;;;;;4862457;28;20183;-81
2021/07/26 09:13:01;;;;;;;25.73;3.27;;;;;;;;;;4862618;28;20795;-88
2021/07/26 09:15:43;;;;;;;28.40;3.30;;;;;;;;;;4878203;28;20205;-89
2021/07/26 09:18:26;;;;;;;12.57;2.03;;;22.50;55.50;;;;;;4877201;28;20211;-82
2021/07/26 09:21:07;;;;;;;15.17;2.37;;;;;;;;;;4877357;28;20185;-86
2021/07/26 09:24:05;;;;;;;44.87;5.20;;;22.80;99.90;;;;;;4857914;28;20263;-85
2021/07/26 09:26:47;;;;;;;18.80;2.70;;;23.10;73.10;;;;;;4871366;28;20174;-78
2021/07/26 09:29:30;;;;;;;14.03;1.77;;;23.70;60.30;;;;;;4877589;28;20190;-82
2021/07/26 09:32:11;;;;;;;20.70;2.63;;;;;;;;;;4877045;28;20196;-78
2021/07/26 09:34:55;;;;;;;22.90;2.93;;;;;;;;;;4872030;28;20191;-88
2021/07/26 09:37:37;;;;;;;25.70;5.33;;;25.70;99.90;;;;;;4878037;28;20208;-86
2021/07/26 09:40:22;;;;;;;16.30;3.77;;;27.40;59.40;;;;;;4877086;28;20220;-81
2021/07/26 09:43:22;;;;;;;11.17;1.77;;;27.70;77.30;;;;;;4873919;28;20174;-85
2021/07/26 09:46:03;;;;;;;26.90;3.80;;;;;;;;;;4875487;28;20182;-80
2021/07/26 09:48:44;;;;;;;40.77;5.80;;;;;;;;;;4875182;28;20185;-76
2021/07/26 09:51:25;;;;;;;27.43;18.93;;;;;;;;;;4877300;28;20193;-81
2021/07/26 09:54:07;;;;;;;17.53;10.87;;;;;;;;;;4864455;28;20216;-81
2021/07/26 09:56:48;;;;;;;64.40;32.57;;;;;;;;;;4870202;28;20188;-83
2021/07/26 09:59:33;;;;;;;43.97;22.83;;;31.60;57.70;;;;;;4855906;28;20225;-78
2021/07/26 10:02:16;;;;;;;22.77;15.65;;;31.60;60.60;;;;;;4873398;28;20221;-81
2021/07/26 10:04:58;;;;;;;35.20;32.03;;;;;;;;;;4862149;28;20190;-86
2021/07/26 10:07:39;;;;;;;43.83;20.02;;;;;;;;;;4875441;28;20185;-81
2021/07/26 10:10:23;;;;;;;19.63;8.48;;;32.60;63.10;;;;;;4876928;28;20264;-84
2021/07/26 10:13:05;;;;;;;17.13;11.55;;;32.70;65.80;;;;;;4872541;28;20181;-88
2021/07/26 10:15:49;;;;;;;31.67;15.93;;;33.30;62.80;;;;;;4860918;28;20216;-84
2021/07/26 10:18:31;;;;;;;41.53;13.90;;;;;;;;;;4870488;28;20570;-80
2021/07/26 10:21:17;;;;;;;15.60;7.13;;;32.50;69.60;;;;;;4875869;28;20185;-80
2021/07/26 10:24:01;;;;;;;13.45;4.45;;;32.10;69.90;;;;;;4875337;28;20181;-83
2021/07/26 10:26:45;;;;;;;34.33;8.82;;;32.30;69.60;;;;;;4875934;28;20189;-79
2021/07/26 10:29:51;;;;;;;26.13;4.43;;;32.50;71.70;;;;;;4859470;28;20538;-84
2021/07/26 10:32:36;;;;;;;36.15;32.75;;;32.80;72.20;;;;;;4871869;28;20216;-85
2021/07/26 10:35:39;;;;;;;99.07;92.05;;;33.70;72.00;;;;;;4876311;28;20185;-80
2021/07/26 10:38:53;;;;;;;116.43;109.15;;;34.80;73.10;;;;;;4874748;28;20299;-82
2021/07/26 10:42:03;;;;;;;169.65;159.48;;;36.50;75.30;;;;;;4869767;28;20192;-85
2021/07/26 10:44:45;;;;;;;128.18;116.95;;;;;;;;;;4873974;28;20635;-81
2021/07/26 10:47:25;;;;;;;88.03;80.80;;;;;;;;;;4875805;28;20189;-79
2021/07/26 10:50:16;;;;;;;156.00;146.52;;;37.50;79.10;;;;;;4875178;28;20181;-79
2021/07/26 10:52:58;;;;;;;110.90;103.35;;;;;;;;;;4875692;28;20192;-78
2021/07/26 10:56:06;;;;;;;137.32;126.22;;;36.90;80.20;;;;;;4863870;28;20543;-77
2021/07/26 10:59:04;;;;;;;121.20;111.32;;;37.10;80.60;;;;;;4857939;28;20205;-78
2021/07/26 11:02:01;;;;;;;134.27;124.13;;;38.30;81.40;;;;;;4868289;28;20606;-77
2021/07/26 11:04:45;;;;;;;125.47;115.28;;;39.40;82.40;;;;;;4875455;28;20283;-79
2021/07/26 11:07:31;;;;;;;116.30;109.10;;;40.20;83.50;;;;;;4876126;28;20173;-77
2021/07/26 11:10:45;;;;;;;97.30;91.53;;;39.80;83.70;;;;;;4874866;28;20659;-80
2021/07/26 11:13:59;;;;;;;124.10;116.47;;;41.10;84.40;;;;;;4875010;28;20181;-80
2021/07/26 11:17:02;;;;;;;123.43;114.90;;;41.60;89.00;;;;;;4875783;28;20177;-79
2021/07/26 11:19:58;;;;;;;99.20;90.78;;;41.80;89.70;;;;;;4873947;28;20212;-83
2021/07/26 11:23:04;;;;;;;65.93;59.42;;;41.50;89.90;;;;;;4870338;28;20182;-84
2021/07/26 11:25:45;;;;;;;66.05;60.05;;;;;;;;;;4873160;28;20631;-80
2021/07/26 11:28:26;;;;;;;88.07;79.88;;;;;;;;;;4859354;28;20193;-78
2021/07/26 11:31:08;;;;;;;81.30;75.38;;;;;;;;;;4874668;28;20189;-80
2021/07/26 11:33:50;;;;;;;82.32;74.82;;;44.90;90.70;;;;;;4874051;28;20181;-79
2021/07/26 11:36:31;;;;;;;78.25;72.30;;;;;;;;;;4873765;28;20599;-79
2021/07/26 11:39:14;;;;;;;64.47;60.13;;;44.80;93.10;;;;;;4873758;28;20201;-79
2021/07/26 11:41:55;;;;;;;92.82;87.32;;;;;;;;;;4875036;28;20181;-81
2021/07/26 11:44:36;;;;;;;117.95;107.93;;;;;;;;;;4873762;28;20182;-80
2021/07/26 11:47:18;;;;;;;139.07;130.98;;;46.70;93.90;;;;;;4874570;28;20185;-80
2021/07/26 11:50:00;;;;;;;175.77;166.05;;;;;;;;;;4873726;28;20185;-78
2021/07/26 11:52:53;;;;;;;221.73;208.02;;;48.30;94.40;;;;;;4874221;28;20216;-80
2021/07/26 11:55:37;;;;;;;240.55;226.55;;;48.60;94.80;;;;;;4866141;28;20181;-82
2021/07/26 11:58:26;;;;;;;230.98;218.68;;;48.40;95.30;;;;;;4874836;28;20208;-80
2021/07/26 12:01:07;;;;;;;261.10;247.70;;;;;;;;;;4872389;28;20190;-78
2021/07/26 12:03:48;;;;;;;243.68;230.20;;;49.00;95.60;;;;;;4873069;28;20221;-79
2021/07/26 12:06:30;;;;;;;226.10;213.10;;;;;;;;;;4866674;28;20523;-87
2021/07/26 12:09:11;;;;;;;221.45;209.77;;;;;;;;;;4874469;28;20209;-78
2021/07/26 12:11:55;;;;;;;232.00;220.23;;;48.40;99.90;;;;;;4870315;28;20185;-77
2021/07/26 12:14:37;;;;;;;218.98;205.90;;;49.20;99.90;;;;;;4872069;28;20181;-77
2021/07/26 12:17:24;;;;;;;217.18;204.20;;;49.50;99.90;;;;;;4860164;28;20546;-78
2021/07/26 12:20:07;;;;;;;205.80;194.73;;;49.60;99.90;;;;;;4871074;28;20686;-77
2021/07/26 12:22:48;;;;;;;197.02;184.98;;;;;;;;;;4870010;28;20186;-80
2021/07/26 12:25:29;;;;;;;187.85;177.60;;;;;;;;;;4875542;28;20639;-79
2021/07/26 12:28:13;;;;;;;197.70;184.50;;;47.90;99.90;;;;;;4874078;28;20205;-77
2021/07/26 12:30:54;;;;;;;135.32;126.45;;;;;;;;;;4873776;28;20593;-75
2021/07/26 12:33:35;;;;;;;85.63;79.22;;;;;;;;;;4867362;28;20185;-75
2021/07/26 12:36:17;;;;;;;100.00;93.43;;;43.30;99.90;;;;;;4875989;28;20212;-78
2021/07/26 12:39:05;;;;;;;103.10;96.10;;;43.10;99.90;;;;;;4876878;28;20181;-76
2021/07/26 12:41:50;;;;;;;99.55;92.57;;;43.70;99.90;;;;;;4877435;28;20209;-76
2021/07/26 12:44:34;;;;;;;92.47;86.13;;;44.30;99.90;;;;;;4855785;28;20718;-77
2021/07/26 12:47:25;;;;;;;92.32;86.70;;;44.60;99.90;;;;;;4877871;28;20181;-76
2021/07/26 12:50:07;;;;;;;106.30;98.47;;;45.40;99.90;;;;;;4875854;28;20730;-79
2021/07/26 12:52:49;;;;;;;58.05;51.72;;;;;;;;;;4876650;28;20181;-77
2021/07/26 12:55:30;;;;;;;63.90;58.88;;;;;;;;;;4870068;28;20264;-80
2021/07/26 12:58:14;;;;;;;71.22;65.75;;;;;;;;;;4876458;28;20189;-76
2021/07/26 13:00:58;;;;;;;104.80;97.38;;;42.80;99.90;;;;;;4872442;28;20242;-78
2021/07/26 13:03:40;;;;;;;61.78;55.25;;;42.50;99.90;;;;;;4870253;28;20170;-80
2021/07/26 13:06:21;;;;;;;33.20;30.20;;;;;;;;;;4876527;28;20711;-74
2021/07/26 13:09:03;;;;;;;50.25;46.38;;;;;;;;;;4876386;28;20193;-80
2021/07/26 13:11:44;;;;;;;71.45;55.00;;;;;;;;;;4870863;28;20177;-77
2021/07/26 13:14:25;;;;;;;44.83;41.05;;;;;;;;;;4877089;28;20181;-82
2021/07/26 13:17:07;;;;;;;56.95;52.95;;;43.10;99.90;;;;;;4877208;28;20216;-75
2021/07/26 13:19:49;;;;;;;75.75;69.47;;;;;;;;;;4871190;28;20181;-76
2021/07/26 13:22:30;;;;;;;64.10;58.83;;;;;;;;;;4876270;28;20177;-78
2021/07/26 13:25:12;;;;;;;26.45;23.75;;;43.10;99.90;;;;;;4877123;28;20524;-76
2021/07/26 13:27:53;;;;;;;22.20;20.00;;;;;;;;;;4877385;28;20749;-79
2021/07/26 13:30:34;;;;;;;20.23;9.57;;;;;;;;;;4876471;28;20671;-78
2021/07/26 13:33:17;;;;;;;26.20;9.38;;;37.70;99.90;;;;;;4858084;28;20182;-76
2021/07/26 13:35:58;;;;;;;15.32;3.80;;;;;;;;;;4872817;28;20530;-74
2021/07/26 13:38:39;;;;;;;54.30;9.10;;;;;;;;;;4869912;28;20181;-74
2021/07/26 13:41:20;;;;;;;16.08;4.03;;;;;;;;;;4876703;28;20217;-76
2021/07/26 13:44:02;;;;;;;25.33;6.47;;;;;;;;;;4876473;28;20538;-76
2021/07/26 13:46:43;;;;;;;26.02;5.28;;;;;;;;;;4869997;28;20185;-76
2021/07/26 13:49:26;;;;;;;19.67;4.15;;;35.30;99.90;;;;;;4876010;28;20217;-76
2021/07/26 13:52:07;;;;;;;16.17;3.45;;;;;;;;;;4876495;28;20272;-77
2021/07/26 13:54:48;;;;;;;38.40;7.97;;;;;;;;;;4870073;28;20221;-74
2021/07/26 13:57:29;;;;;;;21.48;6.72;;;;;;;;;;4876894;28;20252;-74
2021/07/26 14:00:13;;;;;;;29.92;10.77;;;39.80;99.90;;;;;;4875003;28;20193;-76
2021/07/26 14:02:54;;;;;;;21.70;15.77;;;;;;;;;;4876256;28;20197;-74
2021/07/26 14:05:37;;;;;;;30.50;18.92;;;40.80;99.90;;;;;;4868447;28;20213;-76
2021/07/26 14:08:18;;;;;;;18.63;16.70;;;;;;;;;;4876195;28;20197;-81
2021/07/26 14:10:59;;;;;;;20.52;12.60;;;;;;;;;;4876539;28;20193;-75
2021/07/26 14:13:40;;;;;;;42.83;25.15;;;;;;;;;;4869356;28;20178;-76
2021/07/26 14:16:21;;;;;;;36.05;27.60;;;;;;;;;;4875569;28;20189;-76
2021/07/26 14:19:03;;;;;;;25.42;20.23;;;;;;;;;;4875445;28;20288;-77
2021/07/26 14:21:45;;;;;;;24.70;14.93;;;38.20;99.90;;;;;;4870506;28;20177;-76
2021/07/26 14:24:26;;;;;;;15.85;9.82;;;;;;;;;;4875634;28;20220;-74
2021/07/26 14:27:08;;;;;;;23.55;8.23;;;;;;;;;;4875789;28;20639;-77
2021/07/26 14:29:49;;;;;;;22.08;6.53;;;;;;;;;;4869794;28;20201;-74
2021/07/26 14:32:30;;;;;;;16.08;5.28;;;;;;;;;;4876034;28;20169;-77
2021/07/26 14:35:12;;;;;;;16.50;6.40;;;32.90;99.90;;;;;;4875089;28;20260;-76
2021/07/26 14:37:54;;;;;;;26.05;7.75;;;32.30;99.90;;;;;;4874641;28;20525;-78
2021/07/26 14:40:36;;;;;;;16.33;5.85;;;;;;;;;;4867844;28;20548;-76
2021/07/26 14:43:17;;;;;;;15.37;5.40;;;;;;;;;;4875594;28;20185;-77
2021/07/26 14:45:58;;;;;;;13.02;3.45;;;;;;;;;;4875039;28;20178;-78
2021/07/26 14:48:39;;;;;;;56.08;8.77;;;;;;;;;;4873130;28;20615;-77
2021/07/26 14:51:20;;;;;;;18.98;2.92;;;;;;;;;;4874998;28;20535;-75
2021/07/26 14:54:02;;;;;;;14.67;2.43;;;31.70;99.90;;;;;;4875222;28;20224;-75
2021/07/26 14:56:43;;;;;;;24.73;3.80;;;;;;;;;;4868560;28;20519;-75
2021/07/26 14:59:25;;;;;;;18.90;2.93;;;;;;;;;;4874750;28;20196;-76
2021/07/26 15:02:06;;;;;;;14.83;2.07;;;;;;;;;;4873310;28;20223;-81
2021/07/26 15:04:57;;;;;;;33.37;10.30;;;30.70;99.90;;;;;;4869397;28;20216;-80